sensor_id;sensor_type;location;lat;lon;timestamp;pressure;altitude;pressure_sealevel;temperature;humidity
40570;BME280;26270;34.428;-119.710;2023-01-28T00:01:00;101236.67;;;19.02;37.10
40570;BME280;26270;34.428;-119.710;2023-01-28T00:03:31;101236.23;;;18.88;36.11
40570;BME280;26270;34.428;-119.710;2023-01-28T00:06:02;101238.92;;;18.73;35.93
40570;BME280;26270;34.428;-119.710;2023-01-28T00:08:31;101235.38;;;18.80;35.95
40570;BME280;26270;34.428;-119.710;2023-01-28T00:11:00;101233.92;;;18.88;42.16
40570;BME280;26270;34.428;-119.710;2023-01-28T00:13:29;101231.35;;;18.83;46.84
40570;BME280;26270;34.428;-119.710;2023-01-28T00:15:58;101228.83;;;18.84;50.60
40570;BME280;26270;34.428;-119.710;2023-01-28T00:18:29;101220.68;;;18.85;52.08
40570;BME280;26270;34.428;-119.710;2023-01-28T00:20:58;101219.48;;;18.71;52.06
40570;BME280;26270;34.428;-119.710;2023-01-28T00:23:27;101216.61;;;18.68;52.57
40570;BME280;26270;34.428;-119.710;2023-01-28T00:25:58;101212.12;;;18.50;53.36
40570;BME280;26270;34.428;-119.710;2023-01-28T00:28:26;101210.47;;;18.38;54.76
40570;BME280;26270;34.428;-119.710;2023-01-28T00:30:54;101208.84;;;18.62;53.39
40570;BME280;26270;34.428;-119.710;2023-01-28T00:33:22;101206.91;;;18.60;53.02
40570;BME280;26270;34.428;-119.710;2023-01-28T00:35:57;101204.26;;;18.50;52.73
40570;BME280;26270;34.428;-119.710;2023-01-28T00:38:25;101201.16;;;18.39;50.18
40570;BME280;26270;34.428;-119.710;2023-01-28T00:40:54;101197.30;;;18.31;50.33
40570;BME280;26270;34.428;-119.710;2023-01-28T00:43:22;101195.88;;;18.17;48.98
40570;BME280;26270;34.428;-119.710;2023-01-28T00:45:50;101194.76;;;17.94;48.03
40570;BME280;26270;34.428;-119.710;2023-01-28T00:48:19;101187.73;;;17.82;46.85
40570;BME280;26270;34.428;-119.710;2023-01-28T00:50:47;101184.59;;;17.58;47.71
40570;BME280;26270;34.428;-119.710;2023-01-28T00:53:14;101182.05;;;17.73;47.77
40570;BME280;26270;34.428;-119.710;2023-01-28T00:55:42;101184.98;;;17.66;48.41
40570;BME280;26270;34.428;-119.710;2023-01-28T00:58:10;101181.48;;;17.61;48.29
40570;BME280;26270;34.428;-119.710;2023-01-28T01:00:39;101178.45;;;17.42;49.04
40570;BME280;26270;34.428;-119.710;2023-01-28T01:03:07;101173.61;;;17.38;49.74
40570;BME280;26270;34.428;-119.710;2023-01-28T01:05:35;101166.40;;;17.22;51.05
40570;BME280;26270;34.428;-119.710;2023-01-28T01:08:04;101165.11;;;17.16;52.19
40570;BME280;26270;34.428;-119.710;2023-01-28T01:10:32;101164.10;;;17.20;52.40
40570;BME280;26270;34.428;-119.710;2023-01-28T01:13:01;101163.15;;;17.10;53.26
40570;BME280;26270;34.428;-119.710;2023-01-28T01:15:29;101161.67;;;17.01;54.36
40570;BME280;26270;34.428;-119.710;2023-01-28T01:17:58;101163.24;;;17.03;56.57
40570;BME280;26270;34.428;-119.710;2023-01-28T01:20:28;101162.62;;;17.00;58.25
40570;BME280;26270;34.428;-119.710;2023-01-28T01:22:56;101160.75;;;16.97;58.99
40570;BME280;26270;34.428;-119.710;2023-01-28T01:25:24;101161.68;;;16.91;59.58
40570;BME280;26270;34.428;-119.710;2023-01-28T01:27:52;101163.55;;;16.82;59.51
40570;BME280;26270;34.428;-119.710;2023-01-28T01:30:21;101169.23;;;16.74;60.32
40570;BME280;26270;34.428;-119.710;2023-01-28T01:32:48;101170.92;;;16.61;61.02
40570;BME280;26270;34.428;-119.710;2023-01-28T01:35:17;101170.34;;;16.63;61.45
40570;BME280;26270;34.428;-119.710;2023-01-28T01:37:45;101174.51;;;16.53;61.87
40570;BME280;26270;34.428;-119.710;2023-01-28T01:40:13;101174.78;;;16.42;61.64
40570;BME280;26270;34.428;-119.710;2023-01-28T01:42:41;101174.55;;;16.38;61.68
40570;BME280;26270;34.428;-119.710;2023-01-28T01:45:12;101174.37;;;16.42;61.97
40570;BME280;26270;34.428;-119.710;2023-01-28T01:47:45;101176.02;;;16.38;62.32
40570;BME280;26270;34.428;-119.710;2023-01-28T01:50:22;101173.12;;;16.23;62.47
40570;BME280;26270;34.428;-119.710;2023-01-28T01:52:53;101180.90;;;16.17;63.13
40570;BME280;26270;34.428;-119.710;2023-01-28T01:55:24;101187.24;;;16.26;62.85
40570;BME280;26270;34.428;-119.710;2023-01-28T01:57:55;101182.83;;;16.14;63.19
40570;BME280;26270;34.428;-119.710;2023-01-28T02:00:25;101185.00;;;16.08;63.50
40570;BME280;26270;34.428;-119.710;2023-01-28T02:02:54;101183.65;;;16.06;63.24
40570;BME280;26270;34.428;-119.710;2023-01-28T02:05:22;101187.71;;;16.09;64.20
40570;BME280;26270;34.428;-119.710;2023-01-28T02:07:52;101185.69;;;15.96;64.36
40570;BME280;26270;34.428;-119.710;2023-01-28T02:10:21;101184.40;;;15.80;64.51
40570;BME280;26270;34.428;-119.710;2023-01-28T02:12:53;101179.93;;;15.89;64.66
40570;BME280;26270;34.428;-119.710;2023-01-28T02:15:23;101184.08;;;15.79;65.06
40570;BME280;26270;34.428;-119.710;2023-01-28T02:17:52;101185.54;;;15.73;65.96
40570;BME280;26270;34.428;-119.710;2023-01-28T02:20:23;101181.74;;;15.58;66.19
40570;BME280;26270;34.428;-119.710;2023-01-28T02:23:08;101183.34;;;15.49;64.70
40570;BME280;26270;34.428;-119.710;2023-01-28T02:26:37;101181.12;;;15.38;65.46
40570;BME280;26270;34.428;-119.710;2023-01-28T02:29:14;101178.83;;;15.57;65.72
40570;BME280;26270;34.428;-119.710;2023-01-28T02:31:51;101175.75;;;15.45;65.34
40570;BME280;26270;34.428;-119.710;2023-01-28T02:34:30;101175.55;;;15.36;65.98
40570;BME280;26270;34.428;-119.710;2023-01-28T02:37:06;101176.18;;;15.51;65.56
40570;BME280;26270;34.428;-119.710;2023-01-28T02:39:41;101177.81;;;15.27;65.75
40570;BME280;26270;34.428;-119.710;2023-01-28T02:42:14;101182.88;;;15.14;66.11
40570;BME280;26270;34.428;-119.710;2023-01-28T02:44:44;101182.34;;;15.25;66.36
40570;BME280;26270;34.428;-119.710;2023-01-28T02:47:13;101183.02;;;15.33;66.12
40570;BME280;26270;34.428;-119.710;2023-01-28T02:49:44;101177.88;;;15.14;66.18
40570;BME280;26270;34.428;-119.710;2023-01-28T02:52:24;101174.23;;;14.95;66.80
40570;BME280;26270;34.428;-119.710;2023-01-28T02:54:59;101171.68;;;15.10;66.22
40570;BME280;26270;34.428;-119.710;2023-01-28T02:57:37;101178.03;;;14.65;67.73
40570;BME280;26270;34.428;-119.710;2023-01-28T03:00:11;101173.93;;;14.75;67.10
40570;BME280;26270;34.428;-119.710;2023-01-28T03:02:45;101165.10;;;14.79;66.81
40570;BME280;26270;34.428;-119.710;2023-01-28T03:05:22;101165.87;;;14.81;66.38
40570;BME280;26270;34.428;-119.710;2023-01-28T03:07:53;101169.34;;;14.84;66.07
40570;BME280;26270;34.428;-119.710;2023-01-28T03:10:24;101162.85;;;14.69;66.10
40570;BME280;26270;34.428;-119.710;2023-01-28T03:12:55;101158.90;;;14.68;65.73
40570;BME280;26270;34.428;-119.710;2023-01-28T03:15:26;101159.93;;;14.73;65.62
40570;BME280;26270;34.428;-119.710;2023-01-28T03:18:01;101161.03;;;14.71;66.20
40570;BME280;26270;34.428;-119.710;2023-01-28T03:20:36;101159.40;;;14.74;66.39
40570;BME280;26270;34.428;-119.710;2023-01-28T03:23:10;101167.58;;;14.36;66.63
40570;BME280;26270;34.428;-119.710;2023-01-28T03:25:43;101167.98;;;14.42;66.73
40570;BME280;26270;34.428;-119.710;2023-01-28T03:28:15;101167.37;;;14.48;67.27
40570;BME280;26270;34.428;-119.710;2023-01-28T03:30:48;101164.90;;;14.40;66.92
40570;BME280;26270;34.428;-119.710;2023-01-28T03:33:18;101166.19;;;14.54;66.85
40570;BME280;26270;34.428;-119.710;2023-01-28T03:35:47;101165.43;;;14.36;66.53
40570;BME280;26270;34.428;-119.710;2023-01-28T03:38:17;101160.29;;;14.51;67.14
40570;BME280;26270;34.428;-119.710;2023-01-28T03:40:51;101161.99;;;14.00;68.39
40570;BME280;26270;34.428;-119.710;2023-01-28T03:43:20;101166.06;;;13.95;68.47
40570;BME280;26270;34.428;-119.710;2023-01-28T03:45:48;101167.49;;;14.02;69.01
40570;BME280;26270;34.428;-119.710;2023-01-28T03:48:16;101163.01;;;13.85;69.37
40570;BME280;26270;34.428;-119.710;2023-01-28T03:50:45;101162.47;;;13.75;70.06
40570;BME280;26270;34.428;-119.710;2023-01-28T03:53:13;101162.71;;;13.70;69.79
40570;BME280;26270;34.428;-119.710;2023-01-28T03:55:42;101166.21;;;13.56;69.50
40570;BME280;26270;34.428;-119.710;2023-01-28T03:58:11;101169.51;;;13.47;69.49
40570;BME280;26270;34.428;-119.710;2023-01-28T04:00:40;101168.53;;;13.44;68.70
40570;BME280;26270;34.428;-119.710;2023-01-28T04:03:08;101169.00;;;13.62;68.29
40570;BME280;26270;34.428;-119.710;2023-01-28T04:05:36;101170.04;;;13.74;66.83
40570;BME280;26270;34.428;-119.710;2023-01-28T04:08:04;101170.45;;;13.65;66.77
40570;BME280;26270;34.428;-119.710;2023-01-28T04:10:33;101169.72;;;13.63;66.22
40570;BME280;26270;34.428;-119.710;2023-01-28T04:13:01;101173.38;;;13.60;65.87
40570;BME280;26270;34.428;-119.710;2023-01-28T04:15:29;101176.43;;;13.59;66.36
40570;BME280;26270;34.428;-119.710;2023-01-28T04:17:56;101175.87;;;13.59;66.55
40570;BME280;26270;34.428;-119.710;2023-01-28T04:20:24;101178.14;;;13.63;66.85
40570;BME280;26270;34.428;-119.710;2023-01-28T04:22:52;101174.32;;;13.70;66.21
40570;BME280;26270;34.428;-119.710;2023-01-28T04:25:20;101171.34;;;13.50;66.35
40570;BME280;26270;34.428;-119.710;2023-01-28T04:27:48;101169.98;;;13.51;66.08
40570;BME280;26270;34.428;-119.710;2023-01-28T04:30:17;101172.11;;;13.38;65.88
40570;BME280;26270;34.428;-119.710;2023-01-28T04:32:45;101178.55;;;13.39;65.58
40570;BME280;26270;34.428;-119.710;2023-01-28T04:35:14;101180.10;;;13.26;65.81
40570;BME280;26270;34.428;-119.710;2023-01-28T04:37:42;101178.87;;;13.16;65.25
40570;BME280;26270;34.428;-119.710;2023-01-28T04:40:11;101181.22;;;13.26;65.17
40570;BME280;26270;34.428;-119.710;2023-01-28T04:42:39;101180.58;;;13.05;65.24
40570;BME280;26270;34.428;-119.710;2023-01-28T04:45:08;101178.95;;;13.10;64.77
40570;BME280;26270;34.428;-119.710;2023-01-28T04:47:36;101174.17;;;12.78;64.33
40570;BME280;26270;34.428;-119.710;2023-01-28T04:50:04;101171.80;;;12.62;63.57
40570;BME280;26270;34.428;-119.710;2023-01-28T04:52:32;101174.95;;;12.62;62.78
40570;BME280;26270;34.428;-119.710;2023-01-28T04:55:00;101181.68;;;12.49;62.78
40570;BME280;26270;34.428;-119.710;2023-01-28T04:57:27;101185.38;;;12.21;63.29
40570;BME280;26270;34.428;-119.710;2023-01-28T04:59:55;101187.49;;;12.37;63.60
40570;BME280;26270;34.428;-119.710;2023-01-28T05:03:19;101189.02;;;12.50;63.67
40570;BME280;26270;34.428;-119.710;2023-01-28T05:05:48;101190.09;;;12.50;63.50
40570;BME280;26270;34.428;-119.710;2023-01-28T05:08:15;101194.91;;;12.61;63.48
40570;BME280;26270;34.428;-119.710;2023-01-28T05:10:43;101199.48;;;12.35;64.02
40570;BME280;26270;34.428;-119.710;2023-01-28T05:13:11;101193.92;;;12.23;64.49
40570;BME280;26270;34.428;-119.710;2023-01-28T05:15:38;101201.31;;;12.15;64.92
40570;BME280;26270;34.428;-119.710;2023-01-28T05:18:06;101202.57;;;12.27;65.16
40570;BME280;26270;34.428;-119.710;2023-01-28T05:20:34;101196.80;;;12.26;64.47
40570;BME280;26270;34.428;-119.710;2023-01-28T05:23:01;101199.73;;;12.34;64.24
40570;BME280;26270;34.428;-119.710;2023-01-28T05:25:29;101200.50;;;12.45;64.55
40570;BME280;26270;34.428;-119.710;2023-01-28T05:27:57;101201.51;;;12.28;64.57
40570;BME280;26270;34.428;-119.710;2023-01-28T05:30:25;101202.84;;;12.37;64.11
40570;BME280;26270;34.428;-119.710;2023-01-28T05:32:55;101196.48;;;12.35;64.11
40570;BME280;26270;34.428;-119.710;2023-01-28T05:35:23;101191.00;;;12.29;63.92
40570;BME280;26270;34.428;-119.710;2023-01-28T05:37:51;101185.44;;;12.19;63.89
40570;BME280;26270;34.428;-119.710;2023-01-28T05:40:19;101188.74;;;12.19;63.24
40570;BME280;26270;34.428;-119.710;2023-01-28T05:42:47;101187.88;;;12.03;63.08
40570;BME280;26270;34.428;-119.710;2023-01-28T05:45:14;101192.34;;;11.81;64.09
40570;BME280;26270;34.428;-119.710;2023-01-28T05:47:42;101187.39;;;12.13;63.81
40570;BME280;26270;34.428;-119.710;2023-01-28T05:50:12;101183.64;;;11.97;63.46
40570;BME280;26270;34.428;-119.710;2023-01-28T05:52:41;101192.63;;;11.97;63.71
40570;BME280;26270;34.428;-119.710;2023-01-28T05:55:10;101199.81;;;12.07;63.18
40570;BME280;26270;34.428;-119.710;2023-01-28T05:57:37;101194.92;;;12.18;62.03
40570;BME280;26270;34.428;-119.710;2023-01-28T06:00:06;101200.03;;;12.23;61.40
40570;BME280;26270;34.428;-119.710;2023-01-28T06:02:34;101198.36;;;11.56;62.90
40570;BME280;26270;34.428;-119.710;2023-01-28T06:05:02;101195.53;;;11.90;62.56
40570;BME280;26270;34.428;-119.710;2023-01-28T06:07:30;101194.20;;;11.98;61.76
40570;BME280;26270;34.428;-119.710;2023-01-28T06:09:58;101195.41;;;11.68;62.00
40570;BME280;26270;34.428;-119.710;2023-01-28T06:12:26;101192.91;;;11.50;62.42
40570;BME280;26270;34.428;-119.710;2023-01-28T06:14:54;101191.90;;;11.58;62.46
40570;BME280;26270;34.428;-119.710;2023-01-28T06:17:22;101190.43;;;11.75;61.60
40570;BME280;26270;34.428;-119.710;2023-01-28T06:19:50;101194.15;;;11.66;61.89
40570;BME280;26270;34.428;-119.710;2023-01-28T06:22:18;101198.47;;;11.55;62.13
40570;BME280;26270;34.428;-119.710;2023-01-28T06:24:47;101196.76;;;11.65;61.76
40570;BME280;26270;34.428;-119.710;2023-01-28T06:27:16;101193.35;;;11.83;61.56
40570;BME280;26270;34.428;-119.710;2023-01-28T06:29:44;101187.84;;;11.78;61.40
40570;BME280;26270;34.428;-119.710;2023-01-28T06:32:12;101184.45;;;11.56;61.97
40570;BME280;26270;34.428;-119.710;2023-01-28T06:34:40;101184.43;;;11.70;61.25
40570;BME280;26270;34.428;-119.710;2023-01-28T06:37:12;101179.13;;;11.66;61.27
40570;BME280;26270;34.428;-119.710;2023-01-28T06:39:40;101180.51;;;11.74;61.18
40570;BME280;26270;34.428;-119.710;2023-01-28T06:42:07;101173.36;;;11.65;61.61
40570;BME280;26270;34.428;-119.710;2023-01-28T06:44:35;101171.33;;;11.48;61.51
40570;BME280;26270;34.428;-119.710;2023-01-28T06:47:03;101167.56;;;11.44;61.37
40570;BME280;26270;34.428;-119.710;2023-01-28T06:49:30;101165.92;;;11.53;61.62
40570;BME280;26270;34.428;-119.710;2023-01-28T06:51:58;101163.25;;;11.49;61.55
40570;BME280;26270;34.428;-119.710;2023-01-28T06:54:26;101166.97;;;11.53;62.11
40570;BME280;26270;34.428;-119.710;2023-01-28T06:56:54;101154.42;;;11.30;62.07
40570;BME280;26270;34.428;-119.710;2023-01-28T06:59:22;101160.80;;;11.44;61.91
40570;BME280;26270;34.428;-119.710;2023-01-28T07:01:50;101165.79;;;11.47;60.82
40570;BME280;26270;34.428;-119.710;2023-01-28T07:04:17;101164.56;;;11.32;62.60
40570;BME280;26270;34.428;-119.710;2023-01-28T07:06:45;101167.71;;;11.32;61.98
40570;BME280;26270;34.428;-119.710;2023-01-28T07:09:13;101161.94;;;11.51;61.90
40570;BME280;26270;34.428;-119.710;2023-01-28T07:11:41;101156.83;;;11.25;62.19
40570;BME280;26270;34.428;-119.710;2023-01-28T07:14:10;101150.29;;;11.13;62.75
40570;BME280;26270;34.428;-119.710;2023-01-28T07:16:38;101157.12;;;11.20;62.94
40570;BME280;26270;34.428;-119.710;2023-01-28T07:19:06;101161.46;;;10.68;63.96
40570;BME280;26270;34.428;-119.710;2023-01-28T07:21:34;101154.57;;;10.85;63.78
40570;BME280;26270;34.428;-119.710;2023-01-28T07:24:01;101151.05;;;10.83;63.32
40570;BME280;26270;34.428;-119.710;2023-01-28T07:26:29;101146.79;;;10.63;63.59
40570;BME280;26270;34.428;-119.710;2023-01-28T07:28:57;101139.93;;;10.89;63.40
40570;BME280;26270;34.428;-119.710;2023-01-28T07:31:25;101145.66;;;11.02;63.33
40570;BME280;26270;34.428;-119.710;2023-01-28T07:33:53;101141.04;;;11.35;62.45
40570;BME280;26270;34.428;-119.710;2023-01-28T07:36:20;101140.49;;;11.17;62.76
40570;BME280;26270;34.428;-119.710;2023-01-28T07:38:48;101140.00;;;11.19;62.70
40570;BME280;26270;34.428;-119.710;2023-01-28T07:41:16;101139.03;;;11.08;63.09
40570;BME280;26270;34.428;-119.710;2023-01-28T07:43:44;101137.77;;;11.16;62.53
40570;BME280;26270;34.428;-119.710;2023-01-28T07:46:12;101135.64;;;11.08;62.59
40570;BME280;26270;34.428;-119.710;2023-01-28T07:48:39;101140.43;;;10.75;63.31
40570;BME280;26270;34.428;-119.710;2023-01-28T07:51:07;101141.86;;;10.58;64.18
40570;BME280;26270;34.428;-119.710;2023-01-28T07:53:35;101140.88;;;10.59;63.93
40570;BME280;26270;34.428;-119.710;2023-01-28T07:56:04;101138.22;;;10.25;64.84
40570;BME280;26270;34.428;-119.710;2023-01-28T07:58:32;101133.97;;;10.34;65.27
40570;BME280;26270;34.428;-119.710;2023-01-28T08:01:01;101135.97;;;10.19;65.43
40570;BME280;26270;34.428;-119.710;2023-01-28T08:03:29;101140.34;;;10.00;65.78
40570;BME280;26270;34.428;-119.710;2023-01-28T08:05:57;101138.60;;;10.53;64.74
40570;BME280;26270;34.428;-119.710;2023-01-28T08:08:25;101134.30;;;10.69;64.53
40570;BME280;26270;34.428;-119.710;2023-01-28T08:10:54;101128.88;;;10.79;63.81
40570;BME280;26270;34.428;-119.710;2023-01-28T08:13:22;101125.06;;;10.92;63.31
40570;BME280;26270;34.428;-119.710;2023-01-28T08:15:54;101126.79;;;10.81;63.23
40570;BME280;26270;34.428;-119.710;2023-01-28T08:18:22;101126.93;;;10.68;64.00
40570;BME280;26270;34.428;-119.710;2023-01-28T08:20:54;101129.79;;;10.78;62.85
40570;BME280;26270;34.428;-119.710;2023-01-28T08:23:23;101134.14;;;10.68;63.10
40570;BME280;26270;34.428;-119.710;2023-01-28T08:25:52;101139.23;;;10.74;63.31
40570;BME280;26270;34.428;-119.710;2023-01-28T08:28:21;101140.27;;;10.77;63.13
40570;BME280;26270;34.428;-119.710;2023-01-28T08:30:49;101138.35;;;10.63;63.33
40570;BME280;26270;34.428;-119.710;2023-01-28T08:33:18;101139.43;;;10.02;64.79
40570;BME280;26270;34.428;-119.710;2023-01-28T08:35:46;101130.47;;;10.55;63.49
40570;BME280;26270;34.428;-119.710;2023-01-28T08:38:15;101134.19;;;10.14;64.19
40570;BME280;26270;34.428;-119.710;2023-01-28T08:40:43;101133.64;;;10.04;64.19
40570;BME280;26270;34.428;-119.710;2023-01-28T08:43:11;101136.72;;;10.08;64.50
40570;BME280;26270;34.428;-119.710;2023-01-28T08:45:39;101136.45;;;10.14;63.95
40570;BME280;26270;34.428;-119.710;2023-01-28T08:48:13;101131.22;;;10.38;63.94
40570;BME280;26270;34.428;-119.710;2023-01-28T08:50:42;101128.38;;;10.35;63.69
40570;BME280;26270;34.428;-119.710;2023-01-28T08:53:12;101125.43;;;10.45;63.94
40570;BME280;26270;34.428;-119.710;2023-01-28T08:55:41;101122.02;;;10.57;62.64
40570;BME280;26270;34.428;-119.710;2023-01-28T08:58:12;101118.36;;;10.64;63.03
40570;BME280;26270;34.428;-119.710;2023-01-28T09:00:40;101110.25;;;10.72;62.87
40570;BME280;26270;34.428;-119.710;2023-01-28T09:03:09;101110.10;;;10.61;62.95
40570;BME280;26270;34.428;-119.710;2023-01-28T09:05:37;101112.53;;;10.44;62.80
40570;BME280;26270;34.428;-119.710;2023-01-28T09:08:07;101114.75;;;10.31;63.55
40570;BME280;26270;34.428;-119.710;2023-01-28T09:10:35;101115.80;;;10.19;63.88
40570;BME280;26270;34.428;-119.710;2023-01-28T09:13:06;101117.07;;;9.98;63.96
40570;BME280;26270;34.428;-119.710;2023-01-28T09:15:35;101127.46;;;10.17;63.76
40570;BME280;26270;34.428;-119.710;2023-01-28T09:18:03;101128.07;;;10.16;64.35
40570;BME280;26270;34.428;-119.710;2023-01-28T09:20:31;101121.52;;;10.22;64.17
40570;BME280;26270;34.428;-119.710;2023-01-28T09:23:00;101119.41;;;10.34;63.90
40570;BME280;26270;34.428;-119.710;2023-01-28T09:25:29;101114.72;;;10.35;63.82
40570;BME280;26270;34.428;-119.710;2023-01-28T09:27:58;101115.60;;;10.31;63.96
40570;BME280;26270;34.428;-119.710;2023-01-28T09:30:27;101113.69;;;10.32;64.42
40570;BME280;26270;34.428;-119.710;2023-01-28T09:32:56;101110.63;;;10.25;64.33
40570;BME280;26270;34.428;-119.710;2023-01-28T09:35:24;101116.36;;;10.45;63.87
40570;BME280;26270;34.428;-119.710;2023-01-28T09:37:56;101114.95;;;10.42;64.16
40570;BME280;26270;34.428;-119.710;2023-01-28T09:40:30;101109.54;;;10.48;64.25
40570;BME280;26270;34.428;-119.710;2023-01-28T09:43:07;101111.40;;;10.60;63.96
40570;BME280;26270;34.428;-119.710;2023-01-28T09:45:42;101108.37;;;10.50;64.19
40570;BME280;26270;34.428;-119.710;2023-01-28T09:48:15;101108.14;;;9.97;66.76
40570;BME280;26270;34.428;-119.710;2023-01-28T09:50:47;101104.60;;;10.03;67.10
40570;BME280;26270;34.428;-119.710;2023-01-28T09:53:19;101105.20;;;10.41;66.27
40570;BME280;26270;34.428;-119.710;2023-01-28T09:55:49;101103.84;;;10.44;65.99
40570;BME280;26270;34.428;-119.710;2023-01-28T09:58:21;101100.76;;;10.55;65.84
40570;BME280;26270;34.428;-119.710;2023-01-28T10:00:54;101101.36;;;10.44;65.73
40570;BME280;26270;34.428;-119.710;2023-01-28T10:03:39;101091.85;;;10.29;66.23
40570;BME280;26270;34.428;-119.710;2023-01-28T10:06:20;101090.38;;;10.60;65.90
40570;BME280;26270;34.428;-119.710;2023-01-28T10:09:09;101092.81;;;10.62;64.57
40570;BME280;26270;34.428;-119.710;2023-01-28T10:11:52;101097.45;;;10.40;65.17
40570;BME280;26270;34.428;-119.710;2023-01-28T10:14:31;101097.06;;;10.48;64.41
40570;BME280;26270;34.428;-119.710;2023-01-28T10:17:08;101094.98;;;10.50;64.64
40570;BME280;26270;34.428;-119.710;2023-01-28T10:19:44;101092.90;;;10.36;64.44
40570;BME280;26270;34.428;-119.710;2023-01-28T10:22:17;101090.98;;;10.39;64.75
40570;BME280;26270;34.428;-119.710;2023-01-28T10:24:48;101089.93;;;10.42;64.98
40570;BME280;26270;34.428;-119.710;2023-01-28T10:27:20;101089.86;;;10.63;65.08
40570;BME280;26270;34.428;-119.710;2023-01-28T10:29:50;101094.84;;;10.63;65.41
40570;BME280;26270;34.428;-119.710;2023-01-28T10:32:25;101101.42;;;10.50;65.43
40570;BME280;26270;34.428;-119.710;2023-01-28T10:34:56;101104.76;;;10.64;65.78
40570;BME280;26270;34.428;-119.710;2023-01-28T10:37:25;101111.08;;;10.53;65.87
40570;BME280;26270;34.428;-119.710;2023-01-28T10:39:56;101105.81;;;10.58;66.32
40570;BME280;26270;34.428;-119.710;2023-01-28T10:42:27;101106.78;;;10.47;66.48
40570;BME280;26270;34.428;-119.710;2023-01-28T10:44:59;101111.22;;;10.59;66.59
40570;BME280;26270;34.428;-119.710;2023-01-28T10:47:34;101111.51;;;10.78;66.23
40570;BME280;26270;34.428;-119.710;2023-01-28T10:50:06;101103.46;;;10.69;66.27
40570;BME280;26270;34.428;-119.710;2023-01-28T10:52:52;101100.72;;;10.75;65.83
40570;BME280;26270;34.428;-119.710;2023-01-28T10:55:21;101100.44;;;10.87;65.74
40570;BME280;26270;34.428;-119.710;2023-01-28T10:57:49;101100.62;;;11.05;65.39
40570;BME280;26270;34.428;-119.710;2023-01-28T11:00:24;101098.91;;;10.93;65.58
40570;BME280;26270;34.428;-119.710;2023-01-28T11:02:53;101100.67;;;11.09;65.69
40570;BME280;26270;34.428;-119.710;2023-01-28T11:05:23;101105.27;;;10.98;65.49
40570;BME280;26270;34.428;-119.710;2023-01-28T11:08:03;101108.94;;;10.85;65.71
40570;BME280;26270;34.428;-119.710;2023-01-28T11:10:34;101110.95;;;11.12;65.73
40570;BME280;26270;34.428;-119.710;2023-01-28T11:13:05;101106.48;;;10.71;66.60
40570;BME280;26270;34.428;-119.710;2023-01-28T11:15:33;101104.77;;;10.92;66.51
40570;BME280;26270;34.428;-119.710;2023-01-28T11:18:04;101107.32;;;11.17;66.18
40570;BME280;26270;34.428;-119.710;2023-01-28T11:20:37;101106.38;;;11.20;66.21
40570;BME280;26270;34.428;-119.710;2023-01-28T11:23:05;101102.89;;;11.16;65.96
40570;BME280;26270;34.428;-119.710;2023-01-28T11:25:35;101101.57;;;11.25;65.82
40570;BME280;26270;34.428;-119.710;2023-01-28T11:28:07;101101.49;;;11.31;65.66
40570;BME280;26270;34.428;-119.710;2023-01-28T11:30:42;101100.42;;;11.23;65.56
40570;BME280;26270;34.428;-119.710;2023-01-28T11:33:16;101100.25;;;11.31;65.47
40570;BME280;26270;34.428;-119.710;2023-01-28T11:35:53;101102.65;;;11.36;65.72
40570;BME280;26270;34.428;-119.710;2023-01-28T11:38:24;101097.65;;;11.41;65.47
40570;BME280;26270;34.428;-119.710;2023-01-28T11:40:54;101099.40;;;11.20;65.40
40570;BME280;26270;34.428;-119.710;2023-01-28T11:43:23;101106.29;;;11.31;65.40
40570;BME280;26270;34.428;-119.710;2023-01-28T11:45:57;101101.28;;;11.37;65.40
40570;BME280;26270;34.428;-119.710;2023-01-28T11:48:36;101100.27;;;11.18;65.08
40570;BME280;26270;34.428;-119.710;2023-01-28T11:51:21;101099.05;;;11.31;64.94
40570;BME280;26270;34.428;-119.710;2023-01-28T11:54:01;101097.34;;;11.41;64.58
40570;BME280;26270;34.428;-119.710;2023-01-28T11:56:43;101101.43;;;11.29;64.50
40570;BME280;26270;34.428;-119.710;2023-01-28T11:59:30;101104.07;;;11.38;64.46
40570;BME280;26270;34.428;-119.710;2023-01-28T12:02:12;101106.51;;;11.48;63.85
40570;BME280;26270;34.428;-119.710;2023-01-28T12:04:57;101108.74;;;11.37;64.26
40570;BME280;26270;34.428;-119.710;2023-01-28T12:07:38;101116.15;;;11.41;64.79
40570;BME280;26270;34.428;-119.710;2023-01-28T12:10:18;101113.17;;;11.44;65.16
40570;BME280;26270;34.428;-119.710;2023-01-28T12:12:59;101112.27;;;11.50;65.72
40570;BME280;26270;34.428;-119.710;2023-01-28T12:16:48;101114.93;;;11.54;66.16
40570;BME280;26270;34.428;-119.710;2023-01-28T12:19:33;101113.79;;;11.63;67.13
40570;BME280;26270;34.428;-119.710;2023-01-28T12:22:17;101112.80;;;11.66;67.63
40570;BME280;26270;34.428;-119.710;2023-01-28T12:25:05;101117.87;;;11.70;67.91
40570;BME280;26270;34.428;-119.710;2023-01-28T12:27:45;101120.90;;;11.71;67.98
40570;BME280;26270;34.428;-119.710;2023-01-28T12:30:26;101119.58;;;11.81;68.23
40570;BME280;26270;34.428;-119.710;2023-01-28T12:33:13;101122.26;;;11.83;68.71
40570;BME280;26270;34.428;-119.710;2023-01-28T12:35:55;101127.09;;;11.75;69.33
40570;BME280;26270;34.428;-119.710;2023-01-28T12:38:39;101122.37;;;11.81;69.55
40570;BME280;26270;34.428;-119.710;2023-01-28T12:41:14;101121.64;;;11.85;69.34